createdAt,value
2018-11-04T00:00:40.141Z,75.02
2018-11-04T00:03:09.142Z,74.06
2018-11-04T00:05:38.158Z,74.39
2018-11-04T00:08:07.195Z,74.29
2018-11-04T00:10:36.238Z,74.32
2018-11-04T00:13:05.596Z,73.95
2018-11-04T00:15:34.542Z,74.45
2018-11-04T00:18:03.570Z,74.73
2018-11-04T00:20:32.570Z,75.01
2018-11-04T00:23:01.587Z,75.27
2018-11-04T00:25:30.608Z,74.80
2018-11-04T00:27:59.624Z,74.76
2018-11-04T00:30:28.645Z,74.87
2018-11-04T00:32:57.627Z,75.41
2018-11-04T00:35:26.827Z,75.01
2018-11-04T00:37:55.817Z,75.24
2018-11-04T00:40:24.803Z,74.97
2018-11-04T00:42:53.835Z,75.03
2018-11-04T00:45:22.969Z,74.80
2018-11-04T00:47:51.861Z,74.49
2018-11-04T00:50:20.856Z,74.67
2018-11-04T00:52:49.881Z,74.94
2018-11-04T00:55:18.891Z,75.20
2018-11-04T00:57:48.343Z,74.96
2018-11-04T01:00:18.578Z,75.00
2018-11-04T01:02:48.771Z,75.20
2018-11-04T01:05:18.202Z,75.30
2018-11-04T01:07:47.222Z,75.14
2018-11-04T01:10:16.263Z,75.58
2018-11-04T01:12:45.678Z,75.63
2018-11-04T01:15:15.302Z,75.69
2018-11-04T01:17:44.619Z,75.52
2018-11-04T01:20:14.868Z,75.21
2018-11-04T01:22:44.439Z,75.05
2018-11-04T01:25:13.454Z,74.54
2018-11-04T01:27:42.548Z,75.01
2018-11-04T01:30:13.078Z,75.21
2018-11-04T01:32:42.275Z,75.42
2018-11-04T01:35:11.341Z,75.46
2018-11-04T01:37:40.343Z,75.86
2018-11-04T01:40:09.880Z,76.24
2018-11-04T01:42:39.141Z,76.33
2018-11-04T01:45:09.457Z,76.06
2018-11-04T01:47:38.438Z,75.75
2018-11-04T01:50:09.839Z,75.57
2018-11-04T01:52:38.823Z,75.97
2018-11-04T01:55:08.386Z,75.89
2018-11-04T01:57:37.470Z,75.94
2018-11-04T02:00:14.521Z,76.00
2018-11-04T02:02:44.410Z,76.00
2018-11-04T02:05:13.742Z,76.19
2018-11-04T02:07:42.746Z,76.02
2018-11-04T02:10:13.038Z,76.03
2018-11-04T02:12:42.022Z,76.23
2018-11-04T02:15:12.186Z,76.53
2018-11-04T02:17:41.186Z,76.43
2018-11-04T02:20:11.731Z,76.75
2018-11-04T02:22:41.145Z,76.10
2018-11-04T02:25:11.362Z,76.59
2018-11-04T02:27:40.579Z,76.63
2018-11-04T02:30:12.077Z,76.79
2018-11-04T02:32:41.444Z,76.87
2018-11-04T02:35:10.470Z,76.49
2018-11-04T02:37:40.352Z,76.26
2018-11-04T02:40:09.668Z,76.89
2018-11-04T02:42:38.669Z,76.87
2018-11-04T02:45:07.937Z,77.02
2018-11-04T02:47:38.115Z,76.55
2018-11-04T02:50:08.208Z,77.11
2018-11-04T02:52:37.207Z,77.57
2018-11-04T02:55:06.712Z,77.12
2018-11-04T02:57:35.762Z,77.64
2018-11-04T03:00:05.272Z,77.56
2018-11-04T03:02:34.258Z,77.69
2018-11-04T03:05:03.377Z,78.10
2018-11-04T03:07:32.370Z,77.92
2018-11-04T03:10:01.386Z,77.48
2018-11-04T03:12:30.378Z,77.15
2018-11-04T03:14:59.459Z,77.47
2018-11-04T03:17:28.524Z,77.71
2018-11-04T03:19:57.523Z,78.32
2018-11-04T03:22:26.752Z,77.98
2018-11-04T03:24:55.759Z,78.02
2018-11-04T03:27:24.747Z,77.81
2018-11-04T03:29:53.751Z,77.87
2018-11-04T03:32:22.762Z,77.95
2018-11-04T03:34:51.812Z,78.21
2018-11-04T03:37:20.879Z,78.50
2018-11-04T03:39:50.051Z,78.29
2018-11-04T03:42:19.129Z,78.30
2018-11-04T03:44:48.146Z,79.00
2018-11-04T03:47:17.150Z,78.80
2018-11-04T03:49:46.154Z,78.47
2018-11-04T03:52:15.143Z,78.87
2018-11-04T03:54:44.170Z,79.20
2018-11-04T03:57:13.275Z,79.06
2018-11-04T03:59:42.926Z,78.53
2018-11-04T04:02:11.999Z,78.78
2018-11-04T04:04:41.028Z,78.94
2018-11-04T04:07:10.019Z,78.69
2018-11-04T04:09:39.034Z,78.57
2018-11-04T04:12:08.038Z,78.77
2018-11-04T04:14:37.054Z,78.84
2018-11-04T04:17:06.038Z,79.26
2018-11-04T04:19:35.082Z,78.83
2018-11-04T04:22:04.278Z,79.06
2018-11-04T04:24:33.299Z,78.94
2018-11-04T04:27:02.307Z,79.33
2018-11-04T04:29:31.308Z,78.85
2018-11-04T04:32:00.290Z,79.05
2018-11-04T04:34:29.403Z,79.02
2018-11-04T04:36:58.464Z,78.62
2018-11-04T04:39:27.483Z,79.49
2018-11-04T04:41:56.466Z,79.35
2018-11-04T04:44:25.491Z,79.24
2018-11-04T04:46:54.482Z,78.93
2018-11-04T04:49:23.511Z,79.50
2018-11-04T04:51:52.750Z,79.51
2018-11-04T04:54:21.779Z,79.40
2018-11-04T04:56:50.806Z,79.70
2018-11-04T04:59:19.807Z,79.51
2018-11-04T05:01:48.919Z,79.88
2018-11-04T05:04:17.952Z,80.05
2018-11-04T05:06:46.949Z,79.56
2018-11-04T05:09:15.967Z,79.98
2018-11-04T05:11:44.966Z,79.71
2018-11-04T05:14:13.969Z,80.07
2018-11-04T05:16:43.006Z,79.67
2018-11-04T05:19:11.994Z,79.89
2018-11-04T05:21:41.007Z,80.14
2018-11-04T05:24:10.031Z,80.19
2018-11-04T05:26:39.031Z,80.15
2018-11-04T05:29:08.058Z,80.23
2018-11-04T05:31:37.038Z,80.06
2018-11-04T05:34:06.226Z,79.73
2018-11-04T05:36:35.232Z,79.60
2018-11-04T05:39:05.503Z,79.60
2018-11-04T05:41:34.507Z,80.37
2018-11-04T05:44:03.530Z,80.23
2018-11-04T05:46:32.543Z,80.10
2018-11-04T05:49:01.547Z,79.69
2018-11-04T05:51:30.567Z,80.26
2018-11-04T05:53:59.683Z,80.25
2018-11-04T05:56:28.702Z,80.48
2018-11-04T05:58:57.734Z,80.83
2018-11-04T06:01:26.750Z,80.76
2018-11-04T06:03:55.754Z,80.99
2018-11-04T06:06:24.762Z,80.88
2018-11-04T06:08:53.799Z,80.45
2018-11-04T06:11:22.817Z,80.32
2018-11-04T06:13:51.799Z,80.28
2018-11-04T06:16:20.902Z,80.84
2018-11-04T06:18:49.919Z,80.58
2018-11-04T06:21:18.931Z,80.02
2018-11-04T06:23:47.944Z,80.45
2018-11-04T06:26:16.953Z,80.22
2018-11-04T06:28:45.959Z,80.35
2018-11-04T06:31:14.971Z,80.43
2018-11-04T06:33:44.001Z,80.62
2018-11-04T06:36:13.062Z,80.41
2018-11-04T06:38:42.019Z,80.63
2018-11-04T06:41:11.092Z,80.72
2018-11-04T06:43:40.062Z,80.79
2018-11-04T06:46:09.134Z,80.63
2018-11-04T06:48:38.146Z,80.75
2018-11-04T06:51:07.184Z,80.61
2018-11-04T06:53:36.172Z,81.39
2018-11-04T06:56:05.239Z,81.31
2018-11-04T06:58:34.343Z,81.44
2018-11-04T07:01:03.383Z,81.04
2018-11-04T07:03:32.358Z,81.12
2018-11-04T07:06:01.401Z,81.13
2018-11-04T07:08:30.387Z,81.17
2018-11-04T07:10:59.403Z,81.09
2018-11-04T07:13:28.403Z,81.34
2018-11-04T07:15:57.404Z,81.26
2018-11-04T07:18:26.398Z,80.71
2018-11-04T07:20:55.421Z,81.36
2018-11-04T07:23:24.514Z,80.47
2018-11-04T07:25:53.525Z,80.69
2018-11-04T07:28:22.599Z,80.77
2018-11-04T07:30:51.598Z,81.09
2018-11-04T07:33:20.642Z,80.80
2018-11-04T07:35:49.652Z,80.13
2018-11-04T07:38:18.657Z,80.24
2018-11-04T07:40:47.715Z,80.28
2018-11-04T07:43:16.722Z,80.12
2018-11-04T07:45:45.755Z,80.08
2018-11-04T07:48:14.792Z,80.68
2018-11-04T07:50:43.864Z,80.27
2018-11-04T07:53:12.807Z,80.21
2018-11-04T07:55:41.818Z,80.53
2018-11-04T07:58:10.859Z,80.66
2018-11-04T08:00:39.874Z,80.33
2018-11-04T08:03:08.862Z,80.38
2018-11-04T08:05:37.878Z,80.33
2018-11-04T08:08:06.894Z,80.09
2018-11-04T08:10:35.919Z,80.29
2018-11-04T08:13:05.009Z,80.71
2018-11-04T08:15:34.018Z,80.92
2018-11-04T08:18:03.155Z,80.71
2018-11-04T08:20:32.182Z,80.12
2018-11-04T08:23:01.186Z,79.94
2018-11-04T08:25:30.193Z,80.72
2018-11-04T08:27:59.207Z,80.86
2018-11-04T08:30:28.223Z,81.09
2018-11-04T08:32:57.294Z,80.56
2018-11-04T08:35:26.323Z,80.22
2018-11-04T08:37:55.968Z,80.42
2018-11-04T08:40:25.034Z,79.84
2018-11-04T08:42:53.986Z,79.94
2018-11-04T08:45:23.034Z,79.81
2018-11-04T08:47:52.015Z,79.41
2018-11-04T08:50:21.042Z,78.94
2018-11-04T08:52:50.055Z,79.31
2018-11-04T08:55:19.079Z,79.06
2018-11-04T08:57:48.227Z,78.99
2018-11-04T09:00:17.346Z,79.07
2018-11-04T09:02:46.215Z,78.24
2018-11-04T09:05:15.203Z,78.08
2018-11-04T09:07:44.237Z,78.02
2018-11-04T09:10:14.609Z,78.34
2018-11-04T09:12:44.119Z,77.97
2018-11-04T09:15:13.326Z,78.73
2018-11-04T09:17:42.336Z,78.25
2018-11-04T09:20:13.506Z,78.17
2018-11-04T09:22:43.221Z,78.62
2018-11-04T09:25:12.747Z,78.16
2018-11-04T09:27:41.818Z,78.05
2018-11-04T09:30:13.250Z,78.71
2018-11-04T09:32:42.258Z,78.94
2018-11-04T09:35:11.729Z,78.21
2018-11-04T09:37:40.666Z,78.55
2018-11-04T09:40:11.135Z,77.78
2018-11-04T09:42:40.135Z,77.49
2018-11-04T09:45:09.689Z,77.51
2018-11-04T09:47:38.860Z,77.34
2018-11-04T09:50:09.478Z,76.83
2018-11-04T09:52:38.630Z,77.24
2018-11-04T09:55:08.382Z,77.15
2018-11-04T09:57:37.446Z,77.47
2018-11-04T10:00:07.719Z,76.41
2018-11-04T10:02:36.906Z,76.25
2018-11-04T10:05:06.715Z,76.34
2018-11-04T10:07:35.777Z,76.27
2018-11-04T10:10:06.278Z,75.41
2018-11-04T10:12:35.495Z,75.73
2018-11-04T10:15:05.575Z,75.54
2018-11-04T10:17:34.630Z,75.01
2018-11-04T10:20:03.911Z,73.77
2018-11-04T10:22:32.657Z,75.22
2018-11-04T10:25:01.734Z,74.97
2018-11-04T10:27:30.826Z,73.63
2018-11-04T10:30:00.039Z,73.27
2018-11-04T10:32:29.103Z,73.40
2018-11-04T10:34:58.098Z,73.38
2018-11-04T10:37:27.534Z,73.67
2018-11-04T10:39:56.456Z,72.25
2018-11-04T10:42:25.512Z,73.44
2018-11-04T10:44:54.499Z,73.06
2018-11-04T10:47:23.733Z,74.17
2018-11-04T10:49:52.753Z,73.00
2018-11-04T10:52:21.696Z,73.19
2018-11-04T10:54:50.754Z,73.69
2018-11-04T10:57:19.754Z,73.52
2018-11-04T10:59:48.759Z,73.50
2018-11-04T11:02:17.770Z,71.20
2018-11-04T11:04:46.811Z,71.83
2018-11-04T11:07:15.773Z,71.98
2018-11-04T11:09:44.745Z,71.74
2018-11-04T11:12:13.771Z,71.41
2018-11-04T11:14:42.760Z,71.84
2018-11-04T11:17:11.850Z,71.01
2018-11-04T11:19:40.834Z,71.69
2018-11-04T11:22:09.856Z,71.14
2018-11-04T11:24:38.854Z,70.90
2018-11-04T11:27:07.871Z,71.28
2018-11-04T11:29:36.954Z,71.45
2018-11-04T11:32:06.020Z,70.52
2018-11-04T11:34:34.969Z,70.21
2018-11-04T11:37:03.982Z,70.72
2018-11-04T11:39:32.966Z,70.21
2018-11-04T11:42:02.282Z,71.00
2018-11-04T11:44:31.263Z,70.47
2018-11-04T11:47:00.251Z,70.50
2018-11-04T11:49:29.240Z,70.84
2018-11-04T11:51:58.262Z,70.07
2018-11-04T11:54:27.276Z,70.67
2018-11-04T11:56:56.274Z,70.00
2018-11-04T11:59:26.172Z,71.01
2018-11-04T12:01:55.134Z,71.59
2018-11-04T12:04:24.071Z,70.88
2018-11-04T12:06:53.066Z,71.02
2018-11-04T12:09:22.099Z,69.91
2018-11-04T12:11:51.104Z,69.25
2018-11-04T12:14:20.207Z,70.20
2018-11-04T12:16:49.210Z,68.53
2018-11-04T12:19:18.195Z,69.34
2018-11-04T12:21:47.506Z,69.00
2018-11-04T12:24:16.502Z,69.14
2018-11-04T12:26:45.771Z,68.93
2018-11-04T12:29:14.781Z,69.08
2018-11-04T12:31:43.802Z,67.89
2018-11-04T12:34:12.799Z,67.85
2018-11-04T12:36:41.822Z,68.53
2018-11-04T12:39:11.627Z,68.29
2018-11-04T12:41:40.621Z,68.98
2018-11-04T12:44:09.762Z,69.38
2018-11-04T12:46:38.758Z,68.51
2018-11-04T12:49:07.898Z,69.01
2018-11-04T12:51:36.982Z,69.40
2018-11-04T12:54:05.959Z,68.68
2018-11-04T12:56:34.954Z,69.25
2018-11-04T12:59:03.962Z,68.27
2018-11-04T13:01:32.978Z,69.46
2018-11-04T13:04:02.075Z,69.08
2018-11-04T13:06:31.102Z,69.41
2018-11-04T13:09:00.091Z,68.97
2018-11-04T13:11:29.143Z,68.73
2018-11-04T13:13:58.106Z,69.27
2018-11-04T13:16:27.225Z,70.36
2018-11-04T13:18:56.296Z,70.17
2018-11-04T13:21:25.597Z,70.49
2018-11-04T13:23:54.465Z,71.20
2018-11-04T13:26:23.457Z,71.34
2018-11-04T13:28:52.459Z,72.07
2018-11-04T13:31:21.462Z,71.09
2018-11-04T13:33:50.458Z,71.19
2018-11-04T13:36:19.476Z,70.86
2018-11-04T13:38:48.494Z,70.77
2018-11-04T13:41:17.489Z,71.97
2018-11-04T13:43:46.510Z,71.51
2018-11-04T13:46:15.563Z,71.26
2018-11-04T13:48:44.626Z,70.89
2018-11-04T13:51:13.622Z,71.75
2018-11-04T13:53:42.618Z,72.05
2018-11-04T13:56:11.810Z,71.71
2018-11-04T13:58:40.807Z,72.04
2018-11-04T14:01:09.817Z,72.40
2018-11-04T14:03:38.794Z,72.58
2018-11-04T14:06:07.824Z,72.22
2018-11-04T14:08:36.803Z,72.66
2018-11-04T14:11:06.310Z,72.44
2018-11-04T14:13:35.413Z,72.76
2018-11-04T14:16:04.682Z,72.74
2018-11-04T14:18:33.834Z,72.93
2018-11-04T14:21:03.094Z,72.19
2018-11-04T14:23:32.356Z,72.70
2018-11-04T14:26:01.408Z,72.34
2018-11-04T14:28:30.377Z,72.00
2018-11-04T14:30:59.484Z,72.02
2018-11-04T14:33:28.474Z,72.97
2018-11-04T14:35:57.579Z,73.38
2018-11-04T14:38:26.590Z,73.72
2018-11-04T14:40:55.588Z,73.26
2018-11-04T14:43:24.560Z,73.41
2018-11-04T14:45:53.666Z,73.51
2018-11-04T14:48:22.611Z,73.35
2018-11-04T14:50:51.622Z,72.67
2018-11-04T14:53:20.659Z,73.15
2018-11-04T14:55:49.739Z,73.81
2018-11-04T14:58:18.795Z,73.54
2018-11-04T15:00:47.882Z,73.51
2018-11-04T15:03:16.886Z,74.32
2018-11-04T15:05:46.067Z,74.32
2018-11-04T15:08:15.047Z,74.75
2018-11-04T15:10:44.038Z,74.37
2018-11-04T15:13:13.061Z,74.96
2018-11-04T15:15:42.109Z,75.05
2018-11-04T15:18:11.104Z,74.04
2018-11-04T15:20:40.093Z,74.81
2018-11-04T15:23:09.145Z,74.86
2018-11-04T15:25:38.257Z,75.13
2018-11-04T15:28:07.438Z,75.45
2018-11-04T15:30:36.443Z,75.60
2018-11-04T15:33:05.734Z,75.91
2018-11-04T15:35:34.719Z,75.59
2018-11-04T15:38:03.804Z,75.94
2018-11-04T15:40:32.852Z,75.71
2018-11-04T15:43:02.107Z,75.89
2018-11-04T15:45:31.101Z,76.09
2018-11-04T15:48:00.087Z,76.01
2018-11-04T15:50:29.093Z,76.49
2018-11-04T15:52:58.098Z,75.90
2018-11-04T15:55:27.077Z,75.96
2018-11-04T15:57:56.079Z,75.81
2018-11-04T16:00:25.067Z,76.12
2018-11-04T16:02:54.075Z,76.40
2018-11-04T16:05:23.105Z,76.45
2018-11-04T16:07:52.078Z,76.18
2018-11-04T16:12:56.293Z,76.55
2018-11-04T16:15:25.322Z,76.19
2018-11-04T16:17:54.394Z,77.15
2018-11-04T16:20:23.340Z,77.50
2018-11-04T16:22:52.367Z,76.39
2018-11-04T16:25:21.419Z,77.16
2018-11-04T16:27:50.354Z,77.21
2018-11-04T16:30:19.357Z,76.91
2018-11-04T16:32:48.471Z,77.27
2018-11-04T16:35:17.459Z,77.63
2018-11-04T16:37:46.529Z,77.90
2018-11-04T16:40:15.511Z,77.79
2018-11-04T16:42:44.622Z,77.58
2018-11-04T16:45:15.086Z,78.27
2018-11-04T16:47:44.230Z,76.95
2018-11-04T16:50:14.013Z,77.24
2018-11-04T16:52:43.802Z,77.74
2018-11-04T16:55:13.340Z,77.79
2018-11-04T16:57:42.762Z,78.01
2018-11-04T17:00:12.397Z,78.04
2018-11-04T17:02:41.415Z,77.72
2018-11-04T17:05:11.526Z,77.88
2018-11-04T17:07:40.731Z,77.67
2018-11-04T17:10:10.140Z,77.92
2018-11-04T17:12:39.583Z,78.78
2018-11-04T17:15:10.046Z,78.49
2018-11-04T17:17:39.107Z,78.06
2018-11-04T17:20:10.522Z,78.32
2018-11-04T17:22:39.970Z,78.05
2018-11-04T17:25:09.312Z,78.51
2018-11-04T17:27:38.383Z,78.46
2018-11-04T17:30:10.650Z,77.78
2018-11-04T17:32:39.762Z,77.99
2018-11-04T17:35:10.247Z,78.58
2018-11-04T17:37:39.762Z,78.70
2018-11-04T17:40:09.997Z,78.57
2018-11-04T17:42:39.178Z,78.99
2018-11-04T17:45:09.406Z,78.59
2018-11-04T17:47:38.415Z,78.83
2018-11-04T17:50:09.778Z,77.85
2018-11-04T17:52:38.854Z,78.44
2018-11-04T17:55:07.939Z,78.17
2018-11-04T17:57:36.955Z,78.91
2018-11-04T18:00:07.215Z,78.50
2018-11-04T18:02:36.237Z,78.63
2018-11-04T18:05:05.676Z,78.96
2018-11-04T18:07:34.614Z,78.66
2018-11-04T18:10:03.851Z,78.71
2018-11-04T18:12:32.863Z,79.24
2018-11-04T18:15:04.106Z,79.19
2018-11-04T18:17:33.199Z,78.67
2018-11-04T18:20:02.251Z,78.45
2018-11-04T18:22:31.266Z,78.93
2018-11-04T18:25:00.271Z,79.52
2018-11-04T18:27:29.271Z,79.06
2018-11-04T18:29:58.302Z,79.41
2018-11-04T18:32:27.335Z,79.69
2018-11-04T18:34:56.318Z,80.23
2018-11-04T18:37:25.327Z,80.00
2018-11-04T18:39:54.306Z,79.52
2018-11-04T18:42:23.324Z,79.54
2018-11-04T18:44:52.323Z,79.84
2018-11-04T18:47:21.720Z,80.29
2018-11-04T18:49:50.714Z,80.32
2018-11-04T18:52:19.785Z,80.40
2018-11-04T18:54:48.773Z,80.32
2018-11-04T18:57:17.777Z,79.41
2018-11-04T18:59:46.762Z,79.02
2018-11-04T19:02:15.742Z,79.50
2018-11-04T19:04:44.743Z,79.80
2018-11-04T19:07:13.737Z,80.17
2018-11-04T19:09:42.750Z,80.29
2018-11-04T19:12:11.830Z,80.73
2018-11-04T19:14:46.241Z,80.75
2018-11-04T19:17:15.230Z,80.21
2018-11-04T19:19:44.239Z,81.18
2018-11-04T19:22:13.235Z,81.07
2018-11-04T19:24:42.255Z,80.95
2018-11-04T19:27:11.274Z,81.51
2018-11-04T19:29:40.292Z,81.47
2018-11-04T19:32:09.298Z,81.22
2018-11-04T19:34:38.380Z,81.06
2018-11-04T19:37:07.358Z,80.68
2018-11-04T19:39:36.400Z,80.62
2018-11-04T19:42:05.523Z,81.03
2018-11-04T19:44:34.526Z,80.81
2018-11-04T19:47:03.526Z,81.11
2018-11-04T19:49:32.523Z,81.05
2018-11-04T19:52:01.507Z,80.70
2018-11-04T19:54:30.515Z,81.08
2018-11-04T19:56:59.481Z,80.96
2018-11-04T19:59:28.500Z,80.87
2018-11-04T20:01:57.630Z,81.61
2018-11-04T20:04:26.636Z,80.55
2018-11-04T20:06:55.654Z,80.29
2018-11-04T20:09:24.722Z,79.71
2018-11-04T20:11:53.706Z,80.29
2018-11-04T20:14:23.573Z,80.21
2018-11-04T20:16:53.468Z,79.43
2018-11-04T20:19:28.150Z,80.02
2018-11-04T20:21:57.169Z,80.54
2018-11-04T20:24:31.499Z,80.42
2018-11-04T20:27:00.494Z,80.00
2018-11-04T20:29:29.527Z,81.02
2018-11-04T20:32:04.037Z,80.77
2018-11-04T20:34:33.051Z,81.83
2018-11-04T20:37:02.043Z,81.62
2018-11-04T20:39:36.390Z,80.53
2018-11-04T20:42:05.390Z,79.77
2018-11-04T20:44:38.590Z,80.28
2018-11-04T20:47:07.586Z,81.14
2018-11-04T20:49:41.980Z,81.32
2018-11-04T20:52:11.042Z,81.51
2018-11-04T20:54:40.011Z,81.06
2018-11-04T20:57:14.239Z,80.41
2018-11-04T20:59:43.242Z,80.36
2018-11-04T21:02:12.569Z,80.39
2018-11-04T21:04:41.698Z,80.69
2018-11-04T21:07:10.697Z,81.51
2018-11-04T21:09:39.763Z,82.08
2018-11-04T21:12:08.744Z,81.13
2018-11-04T21:14:37.752Z,81.08
2018-11-04T21:17:06.935Z,81.77
2018-11-04T21:19:36.019Z,81.51
2018-11-04T21:22:06.600Z,81.89
2018-11-04T21:24:35.597Z,80.94
2018-11-04T21:27:04.974Z,79.95
2018-11-04T21:29:34.317Z,80.02
2018-11-04T21:32:03.674Z,79.77
2018-11-04T21:34:32.742Z,79.60
2018-11-04T21:37:01.737Z,80.15
2018-11-04T21:39:30.738Z,80.82
2018-11-04T21:41:59.727Z,80.25
2018-11-04T21:44:28.765Z,81.00
2018-11-04T21:46:57.810Z,81.17
2018-11-04T21:49:26.804Z,80.40
2018-11-04T21:51:55.725Z,80.51
2018-11-04T21:54:24.801Z,80.12
2018-11-04T21:56:53.696Z,80.20
2018-11-04T21:59:22.695Z,80.68
2018-11-04T22:01:51.728Z,80.75
2018-11-04T22:04:20.897Z,80.36
2018-11-04T22:06:50.104Z,80.83
2018-11-04T22:09:19.193Z,81.01
2018-11-04T22:11:48.175Z,80.89
2018-11-04T22:14:17.186Z,81.42
2018-11-04T22:16:46.341Z,80.93
2018-11-04T22:19:15.371Z,81.37
2018-11-04T22:21:44.344Z,81.58
2018-11-04T22:24:13.534Z,81.11
2018-11-04T22:26:42.530Z,80.93
2018-11-04T22:29:11.536Z,80.41
2018-11-04T22:31:40.542Z,81.01
2018-11-04T22:34:10.077Z,80.57
2018-11-04T22:36:39.126Z,79.46
2018-11-04T22:39:08.870Z,79.44
2018-11-04T22:41:37.882Z,80.03
2018-11-04T22:44:06.930Z,79.94
2018-11-04T22:46:35.918Z,79.91
2018-11-04T22:49:05.038Z,80.42
2018-11-04T22:51:34.014Z,79.82
2018-11-04T22:54:03.100Z,80.44
2018-11-04T22:56:32.163Z,80.14
2018-11-04T22:59:01.123Z,80.78
2018-11-04T23:01:30.151Z,80.50
2018-11-04T23:03:59.476Z,79.81
2018-11-04T23:06:28.402Z,80.36
2018-11-04T23:08:57.470Z,80.66
2018-11-04T23:11:26.480Z,80.73
2018-11-04T23:13:55.583Z,80.72
2018-11-04T23:16:24.680Z,80.61
2018-11-04T23:18:53.662Z,80.53
2018-11-04T23:21:22.671Z,81.22
2018-11-04T23:23:51.663Z,80.43
2018-11-04T23:26:20.661Z,81.50
2018-11-04T23:28:49.651Z,80.97
2018-11-04T23:31:18.641Z,80.94
2018-11-04T23:33:47.690Z,80.53
2018-11-04T23:36:16.882Z,81.08
2018-11-04T23:38:45.898Z,79.45
2018-11-04T23:41:14.907Z,80.12
2018-11-04T23:43:43.897Z,79.91
2018-11-04T23:46:12.939Z,80.28
2018-11-04T23:48:42.395Z,79.82
2018-11-04T23:51:11.402Z,81.00
2018-11-04T23:53:40.389Z,80.30
2018-11-04T23:56:09.377Z,80.54
2018-11-04T23:58:38.439Z,80.67
